SBAT

Alta Floresta Airport

Alta Floresta, Brazil
TAF SBAT 211000Z 2112/2124 14005KT CAVOK TN20/2112Z TX33/2117Z BECMG 2115/2117 09005KT 9999 SCT030 RMK PCW
Issued Valid From Valid To
Jun-21 @ 10:00 UTC
(8 hours ago)
Jun-21 @ 12:00 UTC
(6 hours ago)
Jun-22 @ 00:00 UTC
(in 6 hours)
Expired Click to View Jun-21 @ 12:00 to Jun-21 @ 15:00
TAF SBAT 211000Z 2112/2124 14005KT CAVOK TN20/2112Z TX33/2117Z
Wind Visibility Clouds
140° at 5 knots 10,000+ meters
  • No significant clouds
Becoming Jun-21 @ 15:00 to Jun-22 @ 00:00
BECMG 2115/2117 09005KT 9999 SCT030 RMK PCW
Wind Visibility Clouds
90° at 5 knots 10,000+ meters
  • Scattered at 3,000' AGL
TAF SBAT 211000Z 2112/2124 14005KT CAVOK TN20/2112Z TX33/2117Z BECMG 2115/2117 09005KT 9999 SCT030 RMK PCW
Issued Jun-21 @ 10:00 UTC
(8 hours ago)
Valid From Jun-21 @ 12:00 UTC
(6 hours ago)
Valid To Jun-22 @ 00:00 UTC
(in 6 hours)
Jun-21 @ 12:00 - Jun-21 @ 15:00
Wind Visibility
140° at 5 knots 10,000+ meters
Clouds
  • No significant clouds
Becoming Jun-21 @ 15:00 - Jun-22 @ 00:00
Wind Visibility
90° at 5 knots 10,000+ meters
Clouds
  • Scattered at 3,000' AGL